createdAt,value
2018-03-15T00:01:53.540Z,83.35
2018-03-15T00:04:23.505Z,83.15
2018-03-15T00:06:52.053Z,83.22
2018-03-15T00:09:20.387Z,83.14
2018-03-15T00:11:48.820Z,83.13
2018-03-15T00:14:18.320Z,83.25
2018-03-15T00:16:46.662Z,83.18
2018-03-15T00:19:15.848Z,83.33
2018-03-15T00:21:44.296Z,83.39
2018-03-15T00:24:12.790Z,83.62
2018-03-15T00:26:41.958Z,83.85
2018-03-15T00:29:10.415Z,83.82
2018-03-15T00:31:39.855Z,83.90
2018-03-15T00:34:08.197Z,84.01
2018-03-15T00:36:37.036Z,83.96
2018-03-15T00:39:05.368Z,83.83
2018-03-15T00:41:33.836Z,83.89
2018-03-15T00:44:02.916Z,83.67
2018-03-15T00:46:31.406Z,83.90
2018-03-15T00:49:00.474Z,83.88
2018-03-15T00:51:28.864Z,83.91
2018-03-15T00:53:57.303Z,83.87
2018-03-15T00:56:25.676Z,84.03
2018-03-15T00:58:54.028Z,84.15
2018-03-15T01:01:22.340Z,84.33
2018-03-15T01:03:51.739Z,84.61
2018-03-15T01:06:20.094Z,84.66
2018-03-15T01:08:48.446Z,84.59
2018-03-15T01:11:17.579Z,84.62
2018-03-15T01:13:45.978Z,84.83
2018-03-15T01:16:14.356Z,84.80
2018-03-15T01:18:42.706Z,84.64
2018-03-15T01:21:11.006Z,84.71
2018-03-15T01:23:39.338Z,84.92
2018-03-15T01:26:08.540Z,84.91
2018-03-15T01:28:37.796Z,84.97
2018-03-15T01:31:06.140Z,85.03
2018-03-15T01:33:34.504Z,84.91
2018-03-15T01:36:03.655Z,85.05
2018-03-15T01:38:31.972Z,85.08
2018-03-15T01:41:00.319Z,85.08
2018-03-15T01:43:28.794Z,85.19
2018-03-15T01:45:57.099Z,85.29
2018-03-15T01:48:26.204Z,85.39
2018-03-15T01:50:54.581Z,85.39
2018-03-15T01:53:23.745Z,85.57
2018-03-15T01:55:52.238Z,85.43
2018-03-15T01:58:22.137Z,85.33
2018-03-15T02:00:51.195Z,85.20
2018-03-15T02:03:19.571Z,84.93
2018-03-15T02:05:47.919Z,85.07
2018-03-15T02:08:16.283Z,85.03
2018-03-15T02:10:45.797Z,84.84
2018-03-15T02:13:14.243Z,84.76
2018-03-15T02:15:42.674Z,84.90
2018-03-15T02:18:11.151Z,85.08
2018-03-15T02:20:40.250Z,85.02
2018-03-15T02:23:08.706Z,84.99
2018-03-15T02:25:37.907Z,84.85
2018-03-15T02:28:06.977Z,84.85
2018-03-15T02:30:35.572Z,84.70
2018-03-15T02:33:03.971Z,84.62
2018-03-15T02:35:32.332Z,84.78
2018-03-15T02:38:01.464Z,84.93
2018-03-15T02:40:29.916Z,85.21
2018-03-15T02:42:59.012Z,85.21
2018-03-15T02:45:28.128Z,85.44
2018-03-15T02:47:56.525Z,85.52
2018-03-15T02:50:25.000Z,85.57
2018-03-15T02:52:53.371Z,85.60
2018-03-15T02:55:21.729Z,85.70
2018-03-15T02:57:50.105Z,85.69
2018-03-15T03:00:19.671Z,85.71
2018-03-15T03:02:48.231Z,85.85
2018-03-15T03:05:16.576Z,85.90
2018-03-15T03:07:45.086Z,85.92
2018-03-15T03:10:13.434Z,85.89
2018-03-15T03:12:41.741Z,85.92
2018-03-15T03:15:10.083Z,85.83
2018-03-15T03:17:38.445Z,85.93
2018-03-15T03:20:07.587Z,85.91
2018-03-15T03:22:35.958Z,85.95
2018-03-15T03:25:04.303Z,85.96
2018-03-15T03:27:33.402Z,85.97
2018-03-15T03:30:02.527Z,85.97
2018-03-15T03:32:30.856Z,85.78
2018-03-15T03:34:59.197Z,85.87
2018-03-15T03:37:27.503Z,85.84
2018-03-15T03:39:57.513Z,86.08
2018-03-15T03:42:26.212Z,86.19
2018-03-15T03:44:55.486Z,86.21
2018-03-15T03:47:23.845Z,86.21
2018-03-15T03:49:52.150Z,86.04
2018-03-15T03:52:20.737Z,85.92
2018-03-15T03:54:49.070Z,86.03
2018-03-15T03:57:17.550Z,86.02
2018-03-15T03:59:45.871Z,85.94
2018-03-15T04:02:14.216Z,85.82
2018-03-15T04:04:42.534Z,85.66
2018-03-15T04:07:11.682Z,85.76
2018-03-15T04:09:40.009Z,85.73
2018-03-15T04:12:09.086Z,85.81
2018-03-15T04:14:37.504Z,85.84
2018-03-15T04:17:06.960Z,85.80
2018-03-15T04:19:35.270Z,85.72
2018-03-15T04:22:05.744Z,85.64
2018-03-15T04:24:34.136Z,85.59
2018-03-15T04:27:04.132Z,85.64
2018-03-15T04:29:32.553Z,85.68
2018-03-15T04:32:00.994Z,85.62
2018-03-15T04:34:29.305Z,85.60
2018-03-15T04:36:57.682Z,85.55
2018-03-15T04:39:26.095Z,85.66
2018-03-15T04:41:54.550Z,85.63
2018-03-15T04:44:22.950Z,85.57
2018-03-15T04:46:52.113Z,85.45
2018-03-15T04:49:20.706Z,85.15
2018-03-15T04:51:49.958Z,85.26
2018-03-15T04:54:18.392Z,85.21
2018-03-15T04:56:46.838Z,85.13
2018-03-15T04:59:15.253Z,84.94
2018-03-15T05:01:43.556Z,84.93
2018-03-15T05:04:14.209Z,84.86
2018-03-15T05:06:42.562Z,84.75
2018-03-15T05:09:11.364Z,84.68
2018-03-15T05:11:39.721Z,84.79
2018-03-15T05:14:08.921Z,84.89
2018-03-15T05:16:38.394Z,84.93
2018-03-15T05:19:08.242Z,84.89
2018-03-15T05:21:36.657Z,84.85
2018-03-15T05:24:05.042Z,84.65
2018-03-15T05:26:33.427Z,84.62
2018-03-15T05:29:01.864Z,84.72
2018-03-15T05:31:30.227Z,84.67
2018-03-15T05:34:00.718Z,84.43
2018-03-15T05:36:29.247Z,84.37
2018-03-15T05:38:57.595Z,84.27
2018-03-15T05:41:25.949Z,84.13
2018-03-15T05:43:54.291Z,84.54
2018-03-15T05:46:22.613Z,84.70
2018-03-15T05:48:51.006Z,84.62
2018-03-15T05:51:19.438Z,84.79
2018-03-15T05:53:47.913Z,84.59
2018-03-15T05:56:16.277Z,84.45
2018-03-15T05:58:46.053Z,84.25
2018-03-15T06:01:15.368Z,84.09
2018-03-15T06:03:44.480Z,84.03
2018-03-15T06:06:12.881Z,83.97
2018-03-15T06:08:41.996Z,84.22
2018-03-15T06:11:10.346Z,84.25
2018-03-15T06:13:38.657Z,83.86
2018-03-15T06:16:06.984Z,83.25
2018-03-15T06:18:35.339Z,83.45
2018-03-15T06:21:03.683Z,83.75
2018-03-15T06:23:31.995Z,83.67
2018-03-15T06:26:00.338Z,83.51
2018-03-15T06:28:28.668Z,83.07
2018-03-15T06:30:57.790Z,82.97
2018-03-15T06:33:26.153Z,82.71
2018-03-15T06:35:54.513Z,82.88
2018-03-15T06:38:23.595Z,83.02
2018-03-15T06:40:52.737Z,82.71
2018-03-15T06:43:21.052Z,82.34
2018-03-15T06:45:49.421Z,81.86
2018-03-15T06:48:17.763Z,81.70
2018-03-15T06:50:46.121Z,81.68
2018-03-15T06:53:14.432Z,81.08
2018-03-15T06:55:42.767Z,81.29
2018-03-15T06:58:12.229Z,81.57
2018-03-15T07:00:41.377Z,82.05
2018-03-15T07:03:10.480Z,82.06
2018-03-15T07:05:39.704Z,81.48
2018-03-15T07:08:08.061Z,80.75
2018-03-15T07:10:36.411Z,80.25
2018-03-15T07:13:04.750Z,80.19
2018-03-15T07:15:33.081Z,80.36
2018-03-15T07:18:01.433Z,80.23
2018-03-15T07:20:29.788Z,79.54
2018-03-15T07:22:58.090Z,78.93
2018-03-15T07:25:27.178Z,79.25
2018-03-15T07:27:55.536Z,79.23
2018-03-15T07:30:23.870Z,78.45
2018-03-15T07:32:52.248Z,77.74
2018-03-15T07:35:20.546Z,77.63
2018-03-15T07:37:48.861Z,77.07
2018-03-15T07:40:17.248Z,77.90
2018-03-15T07:42:45.558Z,78.88
2018-03-15T07:45:13.924Z,79.10
2018-03-15T07:47:43.012Z,79.02
2018-03-15T07:50:12.133Z,78.42
2018-03-15T07:52:40.443Z,78.19
2018-03-15T07:55:08.787Z,78.10
2018-03-15T07:57:37.082Z,78.60
2018-03-15T08:00:05.446Z,78.65
2018-03-15T08:02:34.539Z,79.05
2018-03-15T08:05:02.868Z,79.14
2018-03-15T08:07:31.228Z,79.43
2018-03-15T08:09:59.567Z,80.16
2018-03-15T08:12:27.887Z,80.68
2018-03-15T08:14:56.256Z,80.38
2018-03-15T08:17:24.590Z,81.07
2018-03-15T08:19:52.939Z,81.96
2018-03-15T08:22:21.300Z,82.09
2018-03-15T08:24:49.624Z,81.13
2018-03-15T08:27:17.940Z,81.41
2018-03-15T08:29:47.053Z,81.35
2018-03-15T08:32:15.399Z,82.31
2018-03-15T08:34:43.713Z,81.94
2018-03-15T08:37:12.072Z,81.44
2018-03-15T08:39:40.435Z,80.69
2018-03-15T08:42:08.811Z,79.70
2018-03-15T08:44:37.152Z,78.92
2018-03-15T08:47:08.009Z,78.84
2018-03-15T08:49:36.390Z,78.38
2018-03-15T08:52:04.686Z,78.37
2018-03-15T08:54:33.031Z,78.79
2018-03-15T08:57:01.772Z,78.04
2018-03-15T08:59:30.723Z,77.32
2018-03-15T09:01:59.112Z,76.65
2018-03-15T09:04:27.477Z,75.84
2018-03-15T09:06:55.827Z,76.49
2018-03-15T09:09:24.928Z,75.48
2018-03-15T09:11:54.138Z,74.54
2018-03-15T09:14:22.712Z,74.00
2018-03-15T09:16:51.476Z,75.00
2018-03-15T09:19:20.586Z,77.46
2018-03-15T09:21:48.925Z,78.24
2018-03-15T09:24:17.737Z,77.97
2018-03-15T09:26:46.810Z,77.67
2018-03-15T09:29:15.180Z,77.75
2018-03-15T09:31:43.565Z,76.35
2018-03-15T09:34:11.911Z,76.37
2018-03-15T09:36:40.568Z,76.56
2018-03-15T09:39:08.952Z,76.38
2018-03-15T09:41:37.279Z,75.21
2018-03-15T09:44:05.624Z,72.91
2018-03-15T09:46:33.994Z,70.76
2018-03-15T09:49:02.371Z,69.56
2018-03-15T09:51:30.719Z,71.09
2018-03-15T09:53:59.855Z,72.97
2018-03-15T09:56:28.192Z,72.78
2018-03-15T09:58:57.328Z,73.26
2018-03-15T10:01:25.702Z,71.67
2018-03-15T10:03:54.087Z,70.27
2018-03-15T10:06:22.398Z,69.85
2018-03-15T10:08:50.753Z,72.44
2018-03-15T10:11:19.104Z,71.34
2018-03-15T10:13:47.480Z,69.43
2018-03-15T10:16:15.820Z,67.87
2018-03-15T10:18:44.916Z,66.08
2018-03-15T10:21:14.058Z,66.44
2018-03-15T10:23:42.413Z,67.39
2018-03-15T10:26:10.779Z,66.02
2018-03-15T10:28:39.897Z,65.18
2018-03-15T10:31:08.265Z,66.33
2018-03-15T10:33:38.531Z,65.32
2018-03-15T10:36:06.923Z,65.13
2018-03-15T10:38:35.247Z,64.68
2018-03-15T10:41:03.616Z,64.65
2018-03-15T10:43:32.041Z,65.29
2018-03-15T10:46:00.415Z,64.36
2018-03-15T10:48:28.794Z,64.17
2018-03-15T10:50:57.115Z,64.25
2018-03-15T10:53:26.244Z,63.60
2018-03-15T10:55:54.591Z,64.02
2018-03-15T10:58:23.345Z,63.54
2018-03-15T11:00:57.242Z,63.35
2018-03-15T11:03:31.206Z,62.87
2018-03-15T11:06:05.759Z,60.94
2018-03-15T11:08:36.080Z,61.46
2018-03-15T11:11:04.418Z,61.41
2018-03-15T11:13:33.548Z,64.08
2018-03-15T11:16:01.881Z,64.87
2018-03-15T11:18:30.233Z,64.61
2018-03-15T11:20:58.547Z,63.42
2018-03-15T11:23:27.665Z,63.27
2018-03-15T11:25:56.072Z,61.37
2018-03-15T11:28:24.425Z,58.56
2018-03-15T11:30:52.955Z,60.01
2018-03-15T11:33:21.309Z,60.71
2018-03-15T11:35:49.647Z,61.17
2018-03-15T11:38:18.023Z,60.57
2018-03-15T11:40:46.382Z,61.47
2018-03-15T11:43:15.523Z,60.91
2018-03-15T11:45:43.884Z,58.07
2018-03-15T11:48:12.265Z,61.64
2018-03-15T11:50:40.616Z,63.28
2018-03-15T11:53:09.782Z,61.80
2018-03-15T11:55:38.147Z,61.88
2018-03-15T11:58:06.701Z,65.18
2018-03-15T12:00:35.025Z,66.09
2018-03-15T12:03:03.416Z,65.26
2018-03-15T12:05:31.803Z,65.60
2018-03-15T12:08:00.175Z,63.99
2018-03-15T12:10:29.268Z,61.71
2018-03-15T12:12:57.629Z,61.70
2018-03-15T12:15:25.984Z,64.86
2018-03-15T12:17:54.450Z,64.62
2018-03-15T12:20:22.797Z,64.58
2018-03-15T12:22:51.879Z,64.61
2018-03-15T12:25:20.234Z,64.84
2018-03-15T12:27:48.655Z,64.70
2018-03-15T12:30:17.754Z,64.35
2018-03-15T12:32:46.846Z,63.86
2018-03-15T12:35:15.974Z,64.86
2018-03-15T12:37:45.061Z,65.33
2018-03-15T12:40:13.632Z,65.73
2018-03-15T12:42:44.230Z,66.49
2018-03-15T12:45:12.634Z,66.25
2018-03-15T12:47:41.088Z,65.65
2018-03-15T12:50:09.577Z,64.44
2018-03-15T12:52:37.902Z,62.93
2018-03-15T12:55:06.237Z,63.53
2018-03-15T12:57:34.626Z,62.38
2018-03-15T13:00:03.720Z,63.18
2018-03-15T13:02:32.800Z,64.43
2018-03-15T13:05:01.152Z,60.85
2018-03-15T13:07:29.456Z,60.20
2018-03-15T13:09:58.948Z,60.21
2018-03-15T13:12:27.313Z,61.15
2018-03-15T13:14:55.626Z,63.07
2018-03-15T13:17:25.104Z,63.13
2018-03-15T13:19:53.462Z,63.91
2018-03-15T13:22:21.826Z,64.47
2018-03-15T13:24:50.156Z,65.40
2018-03-15T13:27:19.272Z,66.21
2018-03-15T13:29:47.616Z,66.77
2018-03-15T13:32:16.714Z,66.35
2018-03-15T13:34:45.059Z,66.88
2018-03-15T13:37:13.466Z,66.89
2018-03-15T13:39:41.788Z,66.54
2018-03-15T13:42:10.153Z,66.70
2018-03-15T13:44:38.480Z,66.72
2018-03-15T13:47:06.840Z,66.71
2018-03-15T13:49:35.186Z,67.23
2018-03-15T13:52:03.565Z,68.61
2018-03-15T13:54:32.643Z,68.98
2018-03-15T13:57:01.759Z,69.79
2018-03-15T13:59:30.095Z,70.00
2018-03-15T14:01:59.199Z,69.48
2018-03-15T14:04:27.614Z,68.61
2018-03-15T14:06:55.927Z,66.65
2018-03-15T14:09:24.289Z,66.08
2018-03-15T14:11:52.626Z,66.28
2018-03-15T14:14:22.078Z,66.12
2018-03-15T14:16:50.448Z,65.65
2018-03-15T14:19:18.796Z,66.18
2018-03-15T14:21:47.113Z,67.63
2018-03-15T14:24:15.455Z,67.13
2018-03-15T14:26:43.793Z,68.36
2018-03-15T14:29:12.190Z,69.17
2018-03-15T14:31:40.500Z,67.26
2018-03-15T14:34:08.848Z,68.17
2018-03-15T14:36:38.310Z,69.14
2018-03-15T14:39:06.656Z,67.73
2018-03-15T14:41:35.065Z,68.32
2018-03-15T14:44:03.405Z,67.59
2018-03-15T14:46:31.760Z,68.88
2018-03-15T14:49:00.899Z,69.96
2018-03-15T14:51:40.665Z,68.85
2018-03-15T14:54:09.040Z,69.12
2018-03-15T14:56:37.365Z,68.31
2018-03-15T14:59:07.257Z,68.56
2018-03-15T15:01:42.583Z,68.33
2018-03-15T15:04:10.977Z,68.03
2018-03-15T15:06:40.237Z,68.71
2018-03-15T15:09:09.018Z,68.52
2018-03-15T15:11:37.380Z,69.08
2018-03-15T15:14:05.761Z,68.84
2018-03-15T15:16:34.123Z,68.01
2018-03-15T15:19:03.044Z,68.51
2018-03-15T15:21:32.549Z,68.89
2018-03-15T15:24:01.895Z,69.71
2018-03-15T15:26:30.236Z,68.97
2018-03-15T15:28:58.556Z,69.19
2018-03-15T15:31:28.094Z,69.53
2018-03-15T15:33:56.480Z,69.85
2018-03-15T15:36:25.617Z,69.86
2018-03-15T15:38:53.930Z,69.84
2018-03-15T15:41:23.069Z,69.41
2018-03-15T15:43:51.389Z,70.07
2018-03-15T15:46:20.121Z,70.10
2018-03-15T15:48:48.456Z,70.61
2018-03-15T15:51:16.909Z,71.66
2018-03-15T15:53:47.680Z,71.62
2018-03-15T15:56:16.241Z,70.48
2018-03-15T15:58:45.646Z,71.41
2018-03-15T16:01:14.086Z,72.06
2018-03-15T16:03:42.527Z,72.26
2018-03-15T16:06:10.854Z,72.26
2018-03-15T16:08:40.015Z,71.67
2018-03-15T16:11:08.675Z,71.38
2018-03-15T16:13:37.864Z,71.77
2018-03-15T16:16:07.044Z,72.26
2018-03-15T16:18:35.386Z,72.10
2018-03-15T16:21:05.236Z,71.29
2018-03-15T16:23:34.140Z,71.65
2018-03-15T16:26:03.621Z,72.51
2018-03-15T16:28:31.968Z,72.49
2018-03-15T16:31:00.465Z,73.01
2018-03-15T16:33:29.115Z,73.30
2018-03-15T16:35:58.439Z,73.18
2018-03-15T16:38:26.814Z,72.75
2018-03-15T16:40:56.024Z,72.53
2018-03-15T16:43:24.339Z,73.22
2018-03-15T16:45:54.224Z,73.46
2018-03-15T16:48:23.057Z,73.80
2018-03-15T16:50:52.490Z,73.42
2018-03-15T16:53:20.872Z,73.93
2018-03-15T16:55:49.840Z,73.96
2018-03-15T16:58:18.260Z,74.17
2018-03-15T17:00:46.991Z,74.69
2018-03-15T17:03:17.096Z,73.67
2018-03-15T17:05:49.861Z,73.92
2018-03-15T17:08:19.088Z,73.99
2018-03-15T17:10:48.176Z,74.33
2018-03-15T17:13:17.948Z,74.66
2018-03-15T17:15:47.195Z,74.99
2018-03-15T17:18:16.834Z,75.08
2018-03-15T17:20:45.339Z,75.44
2018-03-15T17:23:13.703Z,75.09
2018-03-15T17:25:42.592Z,74.94
2018-03-15T17:28:11.096Z,75.19
2018-03-15T17:30:40.296Z,75.24
2018-03-15T17:33:10.221Z,75.31
2018-03-15T17:35:38.627Z,74.80
2018-03-15T17:38:07.733Z,75.01
2018-03-15T17:40:37.084Z,75.07
2018-03-15T17:43:05.475Z,75.13
2018-03-15T17:45:34.732Z,74.91
2018-03-15T17:48:03.239Z,74.83
2018-03-15T17:50:31.609Z,75.09
2018-03-15T17:52:59.955Z,75.27
2018-03-15T17:55:28.595Z,75.04
2018-03-15T17:57:57.284Z,75.31
2018-03-15T18:00:26.047Z,75.12
2018-03-15T18:02:54.468Z,75.46
2018-03-15T18:05:23.652Z,75.04
2018-03-15T18:07:52.063Z,75.25
2018-03-15T18:10:20.410Z,75.10
2018-03-15T18:12:48.844Z,75.64
2018-03-15T18:15:17.811Z,75.79
2018-03-15T18:17:47.550Z,75.77
2018-03-15T18:20:16.727Z,75.86
2018-03-15T18:22:46.034Z,75.95
2018-03-15T18:25:15.401Z,75.73
2018-03-15T18:27:44.387Z,76.00
2018-03-15T18:30:13.524Z,75.76
2018-03-15T18:32:41.899Z,75.81
2018-03-15T18:35:10.801Z,76.19
2018-03-15T18:37:40.408Z,76.37
2018-03-15T18:40:08.861Z,76.33
2018-03-15T18:42:37.194Z,76.15
2018-03-15T18:45:05.647Z,76.41
2018-03-15T18:47:34.427Z,76.00
2018-03-15T18:50:03.828Z,76.44
2018-03-15T18:52:33.110Z,76.69
2018-03-15T18:55:01.579Z,76.59
2018-03-15T18:57:30.787Z,76.86
2018-03-15T18:59:59.127Z,77.02
2018-03-15T19:02:27.487Z,76.96
2018-03-15T19:04:55.819Z,76.87
2018-03-15T19:07:24.264Z,77.03
2018-03-15T19:09:54.182Z,77.08
2018-03-15T19:12:22.516Z,76.92
2018-03-15T19:14:53.123Z,77.04
2018-03-15T19:17:22.954Z,77.04
2018-03-15T19:19:51.961Z,76.84
2018-03-15T19:22:20.309Z,76.89
2018-03-15T19:24:49.759Z,77.17
2018-03-15T19:27:18.147Z,77.07
2018-03-15T19:29:46.470Z,77.13
2018-03-15T19:32:14.819Z,77.11
2018-03-15T19:34:44.619Z,77.08
2018-03-15T19:37:14.463Z,77.14
2018-03-15T19:39:43.656Z,77.14
2018-03-15T19:42:12.233Z,77.30
2018-03-15T19:44:41.259Z,77.18
2018-03-15T19:47:09.577Z,77.09
2018-03-15T19:49:37.939Z,77.02
2018-03-15T19:52:06.578Z,76.89
2018-03-15T19:54:34.955Z,76.96
2018-03-15T19:57:03.283Z,76.88
2018-03-15T19:59:31.759Z,77.09
2018-03-15T20:02:00.087Z,77.04
2018-03-15T20:04:29.171Z,77.18
2018-03-15T20:06:59.304Z,77.06
2018-03-15T20:09:27.649Z,77.18
2018-03-15T20:11:56.027Z,77.17
2018-03-15T20:14:24.498Z,77.09
2018-03-15T20:16:53.241Z,77.10
2018-03-15T20:19:23.396Z,76.95
2018-03-15T20:21:51.724Z,77.00
2018-03-15T20:24:25.590Z,76.81
2018-03-15T20:26:53.944Z,77.04
2018-03-15T20:29:22.931Z,77.17
2018-03-15T20:31:51.315Z,77.14
2018-03-15T20:34:19.692Z,77.08
2018-03-15T20:36:48.026Z,76.97
2018-03-15T20:39:22.714Z,77.19
2018-03-15T20:41:51.051Z,77.20
2018-03-15T20:44:19.423Z,77.12
2018-03-15T20:46:53.402Z,77.12
2018-03-15T20:49:22.521Z,77.09
2018-03-15T20:51:52.194Z,76.85
2018-03-15T20:54:20.559Z,76.78
2018-03-15T20:56:49.205Z,77.05
2018-03-15T20:59:17.644Z,76.98
2018-03-15T21:01:45.969Z,77.14
2018-03-15T21:04:14.297Z,77.17
2018-03-15T21:06:42.654Z,77.21
2018-03-15T21:09:11.030Z,77.16
2018-03-15T21:11:39.385Z,77.45
2018-03-15T21:14:07.694Z,77.40
2018-03-15T21:16:36.070Z,77.37
2018-03-15T21:19:04.432Z,77.24
2018-03-15T21:21:32.749Z,77.27
2018-03-15T21:24:01.891Z,77.15
2018-03-15T21:26:30.218Z,77.22
2018-03-15T21:28:58.546Z,77.06
2018-03-15T21:31:26.954Z,77.13
2018-03-15T21:33:55.261Z,77.15
2018-03-15T21:36:24.969Z,77.16
2018-03-15T21:38:54.055Z,77.11
2018-03-15T21:41:23.171Z,77.01
2018-03-15T21:43:51.531Z,77.00
2018-03-15T21:46:20.634Z,76.88
2018-03-15T21:48:49.735Z,77.01
2018-03-15T21:51:18.074Z,77.00
2018-03-15T21:53:46.481Z,77.08
2018-03-15T21:56:15.604Z,77.12
2018-03-15T21:58:43.938Z,77.13
2018-03-15T22:01:12.846Z,77.26
2018-03-15T22:03:41.961Z,77.30
2018-03-15T22:06:10.293Z,77.33
2018-03-15T22:08:38.616Z,77.53
2018-03-15T22:11:07.742Z,77.51
2018-03-15T22:13:36.076Z,77.56
2018-03-15T22:16:04.420Z,77.50
2018-03-15T22:18:32.742Z,77.74
2018-03-15T22:21:01.075Z,77.75
2018-03-15T22:23:29.417Z,77.94
2018-03-15T22:25:57.762Z,78.04
2018-03-15T22:28:26.086Z,77.95
2018-03-15T22:30:54.443Z,77.94
2018-03-15T22:33:22.766Z,78.07
2018-03-15T22:35:51.122Z,78.01
2018-03-15T22:38:19.452Z,77.88
2018-03-15T22:40:47.792Z,77.73
2018-03-15T22:43:16.104Z,77.83
2018-03-15T22:45:44.445Z,77.94
2018-03-15T22:48:12.761Z,78.07
2018-03-15T22:50:41.109Z,77.87
2018-03-15T22:53:09.431Z,77.96
2018-03-15T22:55:37.810Z,77.96
2018-03-15T22:58:06.124Z,78.08
2018-03-15T23:00:34.486Z,78.29
2018-03-15T23:03:02.820Z,78.38
2018-03-15T23:05:31.128Z,78.37
2018-03-15T23:07:59.475Z,78.41
2018-03-15T23:10:27.859Z,78.42
2018-03-15T23:12:56.185Z,78.39
2018-03-15T23:15:24.590Z,78.39
2018-03-15T23:17:53.681Z,78.41
2018-03-15T23:20:22.012Z,78.39
2018-03-15T23:22:50.382Z,78.60
2018-03-15T23:25:18.717Z,78.54
2018-03-15T23:27:47.849Z,78.36
2018-03-15T23:30:16.212Z,78.32
2018-03-15T23:32:44.557Z,78.34
2018-03-15T23:35:12.915Z,78.55
2018-03-15T23:37:41.274Z,78.57
2018-03-15T23:40:09.610Z,78.61
2018-03-15T23:42:38.729Z,78.59
2018-03-15T23:45:07.063Z,78.54
2018-03-15T23:47:35.396Z,78.63
2018-03-15T23:50:03.731Z,78.55
2018-03-15T23:52:32.804Z,78.37
2018-03-15T23:55:01.210Z,78.30
2018-03-15T23:57:29.957Z,78.44
2018-03-15T23:59:58.316Z,78.45
